createdAt,value
2023-05-05T00:00:11.421Z,1017.12
2023-05-05T00:01:11.402Z,1017.15
2023-05-05T00:02:11.432Z,1017.12
2023-05-05T00:03:11.460Z,1017.09
2023-05-05T00:04:11.398Z,1017.09
2023-05-05T00:05:11.364Z,1017.11
2023-05-05T00:06:11.362Z,1017.14
2023-05-05T00:07:11.341Z,1017.11
2023-05-05T00:08:11.320Z,1017.10
2023-05-05T00:09:11.334Z,1017.08
2023-05-05T00:10:11.294Z,1017.10
2023-05-05T00:11:11.308Z,1017.09
2023-05-05T00:12:11.277Z,1017.07
2023-05-05T00:13:11.391Z,1017.01
2023-05-05T00:14:11.277Z,1017.00
2023-05-05T00:15:11.242Z,1017.02
2023-05-05T00:16:11.227Z,1017.03
2023-05-05T00:17:11.341Z,1017.07
2023-05-05T00:18:11.233Z,1017.14
2023-05-05T00:19:11.258Z,1017.01
2023-05-05T00:20:11.199Z,1017.08
2023-05-05T00:21:11.174Z,1017.05
2023-05-05T00:22:11.158Z,1017.02
2023-05-05T00:23:11.154Z,1017.03
2023-05-05T00:24:11.157Z,1016.99
2023-05-05T00:25:11.152Z,1017.00
2023-05-05T00:26:11.120Z,1016.99
2023-05-05T00:27:11.132Z,1016.98
2023-05-05T00:28:11.118Z,1016.99
2023-05-05T00:29:11.111Z,1016.99
2023-05-05T00:30:11.079Z,1017.07
2023-05-05T00:31:11.153Z,1016.95
2023-05-05T00:32:11.053Z,1016.94
2023-05-05T00:33:11.080Z,1016.93
2023-05-05T00:34:11.063Z,1016.93
2023-05-05T00:35:11.029Z,1016.99
2023-05-05T00:36:11.015Z,1016.94
2023-05-05T00:37:11.043Z,1016.87
2023-05-05T00:38:10.986Z,1016.93
2023-05-05T00:39:11.021Z,1016.87
2023-05-05T00:40:10.976Z,1016.90
2023-05-05T00:41:10.972Z,1016.86
2023-05-05T00:42:10.971Z,1016.91
2023-05-05T00:43:10.959Z,1016.93
2023-05-05T00:44:10.944Z,1016.87
2023-05-05T00:45:10.926Z,1016.86
2023-05-05T00:46:10.940Z,1016.91
2023-05-05T00:47:10.926Z,1016.88
2023-05-05T00:48:10.947Z,1016.92
2023-05-05T00:49:10.904Z,1016.91
2023-05-05T00:50:10.868Z,1016.87
2023-05-05T00:51:10.878Z,1016.92
2023-05-05T00:52:10.844Z,1016.93
2023-05-05T00:53:10.831Z,1016.91
2023-05-05T00:54:10.841Z,1016.90
2023-05-05T00:55:10.815Z,1016.92
2023-05-05T00:56:10.820Z,1016.85
2023-05-05T00:57:10.812Z,1016.86
2023-05-05T00:58:10.776Z,1016.81
2023-05-05T00:59:10.809Z,1016.74
2023-05-05T01:00:10.860Z,1016.83
2023-05-05T01:01:10.827Z,1016.80
2023-05-05T01:02:10.744Z,1016.79
2023-05-05T01:03:10.787Z,1016.77
2023-05-05T01:04:10.738Z,1016.83
2023-05-05T01:05:10.699Z,1016.76
2023-05-05T01:06:10.699Z,1016.81
2023-05-05T01:07:10.689Z,1016.71
2023-05-05T01:08:10.699Z,1016.80
2023-05-05T01:09:10.687Z,1016.74
2023-05-05T01:10:19.843Z,1016.66
2023-05-05T01:11:11.658Z,1016.71
2023-05-05T01:12:10.622Z,1016.73
2023-05-05T01:13:10.657Z,1016.75
2023-05-05T01:14:10.601Z,1016.76
2023-05-05T01:15:10.628Z,1016.77
2023-05-05T01:16:10.629Z,1016.81
2023-05-05T01:17:10.579Z,1016.77
2023-05-05T01:18:10.576Z,1016.78
2023-05-05T01:19:10.558Z,1016.85
2023-05-05T01:20:10.694Z,1016.79
2023-05-05T01:21:10.524Z,1016.79
2023-05-05T01:22:10.515Z,1016.81
2023-05-05T01:23:10.503Z,1016.83
2023-05-05T01:24:10.489Z,1016.79
2023-05-05T01:25:10.512Z,1016.82
2023-05-05T01:26:10.487Z,1016.80
2023-05-05T01:27:10.458Z,1016.80
2023-05-05T01:28:10.452Z,1016.85
2023-05-05T01:29:10.433Z,1016.86
2023-05-05T01:30:10.574Z,1016.75
2023-05-05T01:31:10.463Z,1016.80
2023-05-05T01:32:10.407Z,1016.77
2023-05-05T01:33:10.394Z,1016.75
2023-05-05T01:34:10.383Z,1016.73
2023-05-05T01:35:10.406Z,1016.75
2023-05-05T01:36:10.366Z,1016.77
2023-05-05T01:37:10.357Z,1016.79
2023-05-05T01:38:10.346Z,1016.74
2023-05-05T01:39:10.443Z,1016.72
2023-05-05T01:40:10.333Z,1016.75
2023-05-05T01:41:10.328Z,1016.73
2023-05-05T01:42:10.295Z,1016.80
2023-05-05T01:43:10.282Z,1016.76
2023-05-05T01:44:10.271Z,1016.76
2023-05-05T01:45:10.278Z,1016.76
2023-05-05T01:46:10.288Z,1016.79
2023-05-05T01:47:10.265Z,1016.74
2023-05-05T01:48:10.234Z,1016.75
2023-05-05T01:49:10.218Z,1016.69
2023-05-05T01:50:10.401Z,1016.73
2023-05-05T01:51:10.194Z,1016.74
2023-05-05T01:52:10.186Z,1016.78
2023-05-05T01:53:10.168Z,1016.72
2023-05-05T01:54:10.161Z,1016.76
2023-05-05T01:55:10.173Z,1016.81
2023-05-05T01:56:10.143Z,1016.68
2023-05-05T01:57:10.138Z,1016.82
2023-05-05T01:58:10.124Z,1016.78
2023-05-05T01:59:10.108Z,1016.80
2023-05-05T02:00:10.382Z,1016.73
2023-05-05T02:01:10.104Z,1016.70
2023-05-05T02:02:10.108Z,1016.75
2023-05-05T02:03:10.203Z,1016.71
2023-05-05T02:04:10.096Z,1016.75
2023-05-05T02:05:10.081Z,1016.74
2023-05-05T02:06:10.034Z,1016.72
2023-05-05T02:07:10.021Z,1016.71
2023-05-05T02:08:10.011Z,1016.72
2023-05-05T02:09:09.997Z,1016.63
2023-05-05T02:10:10.135Z,1016.63
2023-05-05T02:11:10.001Z,1016.63
2023-05-05T02:12:09.972Z,1016.65
2023-05-05T02:13:10.052Z,1016.68
2023-05-05T02:14:09.957Z,1016.68
2023-05-05T02:15:09.938Z,1016.60
2023-05-05T02:16:09.973Z,1016.62
2023-05-05T02:17:09.939Z,1016.63
2023-05-05T02:18:09.922Z,1016.67
2023-05-05T02:19:09.921Z,1016.67
2023-05-05T02:20:10.054Z,1016.63
2023-05-05T02:21:09.910Z,1016.61
2023-05-05T02:22:09.872Z,1016.60
2023-05-05T02:23:09.853Z,1016.55
2023-05-05T02:24:09.854Z,1016.57
2023-05-05T02:25:09.850Z,1016.66
2023-05-05T02:26:09.842Z,1016.60
2023-05-05T02:27:09.805Z,1016.62
2023-05-05T02:28:09.799Z,1016.65
2023-05-05T02:29:09.794Z,1016.61
2023-05-05T02:30:10.019Z,1016.59
2023-05-05T02:31:09.836Z,1016.62
2023-05-05T02:32:09.762Z,1016.63
2023-05-05T02:33:09.742Z,1016.56
2023-05-05T02:34:09.734Z,1016.64
2023-05-05T02:35:09.765Z,1016.61
2023-05-05T02:36:09.745Z,1016.62
2023-05-05T02:37:09.710Z,1016.64
2023-05-05T02:38:09.690Z,1016.64
2023-05-05T02:39:09.713Z,1016.67
2023-05-05T02:40:09.880Z,1016.64
2023-05-05T02:41:09.685Z,1016.60
2023-05-05T02:42:09.661Z,1016.66
2023-05-05T02:43:09.697Z,1016.57
2023-05-05T02:44:09.630Z,1016.61
2023-05-05T02:45:09.663Z,1016.60
2023-05-05T02:46:09.678Z,1016.60
2023-05-05T02:47:09.613Z,1016.59
2023-05-05T02:48:09.659Z,1016.62
2023-05-05T02:49:09.570Z,1016.62
2023-05-05T02:50:09.920Z,1016.59
2023-05-05T02:51:09.587Z,1016.62
2023-05-05T02:52:09.538Z,1016.59
2023-05-05T02:53:09.529Z,1016.57
2023-05-05T02:54:09.517Z,1016.54
2023-05-05T02:55:09.523Z,1016.56
2023-05-05T02:56:09.523Z,1016.57
2023-05-05T02:57:09.490Z,1016.56
2023-05-05T02:58:09.476Z,1016.55
2023-05-05T02:59:09.459Z,1016.55
2023-05-05T03:00:09.693Z,1016.56
2023-05-05T03:01:09.509Z,1016.51
2023-05-05T03:02:09.424Z,1016.57
2023-05-05T03:03:09.456Z,1016.56
2023-05-05T03:04:09.409Z,1016.60
2023-05-05T03:05:09.409Z,1016.56
2023-05-05T03:06:09.385Z,1016.64
2023-05-05T03:07:09.473Z,1016.57
2023-05-05T03:08:09.366Z,1016.60
2023-05-05T03:09:09.350Z,1016.66
2023-05-05T03:10:09.803Z,1016.59
2023-05-05T03:11:09.332Z,1016.59
2023-05-05T03:12:09.390Z,1016.59
2023-05-05T03:13:09.387Z,1016.56
2023-05-05T03:14:09.296Z,1016.65
2023-05-05T03:15:09.282Z,1016.60
2023-05-05T03:16:09.330Z,1016.59
2023-05-05T03:17:09.306Z,1016.61
2023-05-05T03:18:09.263Z,1016.64
2023-05-05T03:19:09.244Z,1016.59
2023-05-05T03:20:09.417Z,1016.60
2023-05-05T03:21:09.225Z,1016.53
2023-05-05T03:22:09.230Z,1016.56
2023-05-05T03:23:09.215Z,1016.58
2023-05-05T03:24:09.193Z,1016.54
2023-05-05T03:25:09.174Z,1016.54
2023-05-05T03:26:09.192Z,1016.54
2023-05-05T03:27:09.188Z,1016.50
2023-05-05T03:28:09.144Z,1016.55
2023-05-05T03:29:09.129Z,1016.54
2023-05-05T03:30:09.347Z,1016.51
2023-05-05T03:31:09.151Z,1016.52
2023-05-05T03:32:09.126Z,1016.55
2023-05-05T03:33:09.197Z,1016.53
2023-05-05T03:34:09.077Z,1016.56
2023-05-05T03:35:09.064Z,1016.48
2023-05-05T03:36:09.080Z,1016.59
2023-05-05T03:37:09.055Z,1016.57
2023-05-05T03:38:09.029Z,1016.56
2023-05-05T03:39:09.062Z,1016.53
2023-05-05T03:40:09.234Z,1016.56
2023-05-05T03:41:09.013Z,1016.57
2023-05-05T03:42:09.007Z,1016.60
2023-05-05T03:43:08.970Z,1016.63
2023-05-05T03:44:09.020Z,1016.55
2023-05-05T03:45:08.953Z,1016.61
2023-05-05T03:46:09.005Z,1016.60
2023-05-05T03:47:08.955Z,1016.63
2023-05-05T03:48:08.956Z,1016.62
2023-05-05T03:49:08.920Z,1016.60
2023-05-05T03:50:09.136Z,1016.60
2023-05-05T03:51:08.883Z,1016.56
2023-05-05T03:52:08.905Z,1016.64
2023-05-05T03:53:08.865Z,1016.62
2023-05-05T03:54:08.853Z,1016.54
2023-05-05T03:55:08.865Z,1016.63
2023-05-05T03:56:08.839Z,1016.50
2023-05-05T03:57:08.852Z,1016.58
2023-05-05T03:58:08.820Z,1016.55
2023-05-05T03:59:08.847Z,1016.50
2023-05-05T04:00:08.913Z,1016.51
2023-05-05T04:01:08.774Z,1016.48
2023-05-05T04:02:08.816Z,1016.47
2023-05-05T04:03:08.912Z,1016.53
2023-05-05T04:04:08.829Z,1016.45
2023-05-05T04:05:08.743Z,1016.43
2023-05-05T04:06:08.752Z,1016.47
2023-05-05T04:07:08.735Z,1016.46
2023-05-05T04:08:08.708Z,1016.47
2023-05-05T04:09:08.719Z,1016.46
2023-05-05T04:10:08.931Z,1016.46
2023-05-05T04:11:08.713Z,1016.48
2023-05-05T04:12:08.675Z,1016.45
2023-05-05T04:13:08.724Z,1016.45
2023-05-05T04:14:08.644Z,1016.47
2023-05-05T04:15:08.636Z,1016.46
2023-05-05T04:16:08.718Z,1016.47
2023-05-05T04:17:08.608Z,1016.52
2023-05-05T04:18:08.636Z,1016.49
2023-05-05T04:19:08.584Z,1016.45
2023-05-05T04:20:08.813Z,1016.49
2023-05-05T04:21:08.583Z,1016.45
2023-05-05T04:22:08.557Z,1016.49
2023-05-05T04:23:08.544Z,1016.49
2023-05-05T04:24:08.536Z,1016.49
2023-05-05T04:25:08.531Z,1016.45
2023-05-05T04:26:08.551Z,1016.48
2023-05-05T04:27:08.537Z,1016.44
2023-05-05T04:28:08.491Z,1016.48
2023-05-05T04:29:08.471Z,1016.48
2023-05-05T04:30:08.722Z,1016.50
2023-05-05T04:31:08.470Z,1016.50
2023-05-05T04:32:08.466Z,1016.54
2023-05-05T04:33:08.434Z,1016.53
2023-05-05T04:34:08.422Z,1016.61
2023-05-05T04:35:08.408Z,1016.61
2023-05-05T04:36:08.426Z,1016.58
2023-05-05T04:37:08.422Z,1016.65
2023-05-05T04:38:08.394Z,1016.63
2023-05-05T04:39:08.398Z,1016.62
2023-05-05T04:40:08.541Z,1016.64
2023-05-05T04:41:08.340Z,1016.75
2023-05-05T04:42:08.364Z,1016.72
2023-05-05T04:43:08.345Z,1016.72
2023-05-05T04:44:08.327Z,1016.67
2023-05-05T04:45:08.310Z,1016.68
2023-05-05T04:46:08.318Z,1016.79
2023-05-05T04:47:08.314Z,1016.75
2023-05-05T04:48:08.315Z,1016.80
2023-05-05T04:49:08.256Z,1016.82
2023-05-05T04:50:08.636Z,1016.74
2023-05-05T04:51:08.250Z,1016.75
2023-05-05T04:52:08.251Z,1016.76
2023-05-05T04:53:08.214Z,1016.76
2023-05-05T04:54:08.206Z,1016.79
2023-05-05T04:55:08.191Z,1016.74
2023-05-05T04:56:08.198Z,1016.82
2023-05-05T04:57:08.195Z,1016.82
2023-05-05T04:58:08.172Z,1016.83
2023-05-05T04:59:08.168Z,1016.82
2023-05-05T05:00:08.509Z,1016.90
2023-05-05T05:01:08.131Z,1016.84
2023-05-05T05:02:08.182Z,1016.86
2023-05-05T05:03:08.202Z,1016.84
2023-05-05T05:04:08.096Z,1016.89
2023-05-05T05:05:08.087Z,1016.84
2023-05-05T05:06:08.084Z,1016.91
2023-05-05T05:07:08.082Z,1016.87
2023-05-05T05:08:08.063Z,1016.94
2023-05-05T05:09:08.050Z,1016.90
2023-05-05T05:10:08.301Z,1016.91
2023-05-05T05:11:08.015Z,1016.90
2023-05-05T05:12:08.025Z,1016.89
2023-05-05T05:13:08.337Z,1016.88
2023-05-05T05:14:07.991Z,1016.92
2023-05-05T05:15:08.006Z,1016.91
2023-05-05T05:16:08.072Z,1016.95
2023-05-05T05:17:07.979Z,1016.97
2023-05-05T05:18:07.967Z,1016.96
2023-05-05T05:19:07.932Z,1016.90
2023-05-05T05:20:08.233Z,1016.98
2023-05-05T05:21:07.918Z,1016.93
2023-05-05T05:22:07.920Z,1016.98
2023-05-05T05:23:07.895Z,1016.98
2023-05-05T05:24:07.892Z,1017.01
2023-05-05T05:25:07.877Z,1017.01
2023-05-05T05:26:07.875Z,1017.03
2023-05-05T05:27:09.772Z,1017.04
2023-05-05T05:28:10.789Z,1017.04
2023-05-05T05:29:07.829Z,1017.02
2023-05-05T05:30:07.981Z,1016.99
2023-05-05T05:31:07.831Z,1017.09
2023-05-05T05:32:07.850Z,1017.05
2023-05-05T05:33:07.874Z,1016.98
2023-05-05T05:34:07.801Z,1016.97
2023-05-05T05:35:07.766Z,1017.05
2023-05-05T05:36:07.755Z,1017.01
2023-05-05T05:37:07.782Z,1017.04
2023-05-05T05:38:07.745Z,1017.04
2023-05-05T05:39:07.722Z,1017.02
2023-05-05T05:40:07.936Z,1017.02
2023-05-05T05:41:07.691Z,1017.02
2023-05-05T05:42:07.687Z,1017.04
2023-05-05T05:43:07.699Z,1017.01
2023-05-05T05:44:07.656Z,1017.07
2023-05-05T05:45:07.666Z,1017.03
2023-05-05T05:46:09.307Z,1016.98
2023-05-05T05:47:07.669Z,1017.00
2023-05-05T05:48:07.656Z,1017.06
2023-05-05T05:49:07.609Z,1017.00
2023-05-05T05:50:07.967Z,1017.00
2023-05-05T05:51:07.581Z,1017.01
2023-05-05T05:52:07.580Z,1016.98
2023-05-05T05:53:07.583Z,1017.02
2023-05-05T05:54:07.546Z,1016.97
2023-05-05T05:55:07.592Z,1017.05
2023-05-05T05:56:07.534Z,1016.97
2023-05-05T05:57:07.534Z,1017.03
2023-05-05T05:58:07.520Z,1016.99
2023-05-05T05:59:07.502Z,1016.95
2023-05-05T06:00:07.783Z,1017.02
2023-05-05T06:01:07.518Z,1016.99
2023-05-05T06:02:07.511Z,1017.03
2023-05-05T06:03:07.630Z,1017.04
2023-05-05T06:04:07.624Z,1017.01
2023-05-05T06:05:07.430Z,1017.01
2023-05-05T06:06:07.444Z,1017.00
2023-05-05T06:07:07.413Z,1017.01
2023-05-05T06:08:07.410Z,1016.99
2023-05-05T06:09:07.388Z,1017.00
2023-05-05T06:10:22.967Z,1017.08
2023-05-05T06:11:08.390Z,1017.06
2023-05-05T06:12:07.349Z,1017.05
2023-05-05T06:13:07.350Z,1017.13
2023-05-05T06:14:07.325Z,1017.04
2023-05-05T06:15:07.344Z,1017.13
2023-05-05T06:16:07.352Z,1017.09
2023-05-05T06:17:07.297Z,1017.09
2023-05-05T06:18:07.320Z,1017.01
2023-05-05T06:19:07.319Z,1017.04
2023-05-05T06:20:07.460Z,1017.04
2023-05-05T06:21:07.266Z,1016.99
2023-05-05T06:22:07.242Z,1017.04
2023-05-05T06:23:07.238Z,1017.01
2023-05-05T06:24:07.222Z,1017.01
2023-05-05T06:25:07.228Z,1017.03
2023-05-05T06:26:07.208Z,1017.07
2023-05-05T06:27:07.192Z,1017.09
2023-05-05T06:28:07.179Z,1017.08
2023-05-05T06:29:07.168Z,1017.07
2023-05-05T06:30:07.450Z,1017.15
2023-05-05T06:31:07.197Z,1017.08
2023-05-05T06:32:07.128Z,1017.17
2023-05-05T06:33:07.175Z,1017.07
2023-05-05T06:34:07.106Z,1017.02
2023-05-05T06:35:07.156Z,1017.06
2023-05-05T06:36:07.155Z,1017.06
2023-05-05T06:37:07.078Z,1017.10
2023-05-05T06:38:07.075Z,1017.08
2023-05-05T06:39:07.059Z,1017.02
2023-05-05T06:40:07.294Z,1017.02
2023-05-05T06:41:07.068Z,1017.08
2023-05-05T06:42:07.023Z,1017.06
2023-05-05T06:43:07.039Z,1017.02
2023-05-05T06:44:07.005Z,1017.08
2023-05-05T06:45:06.997Z,1017.09
2023-05-05T06:46:07.004Z,1017.11
2023-05-05T06:47:07.067Z,1017.09
2023-05-05T06:48:06.968Z,1017.17
2023-05-05T06:49:06.954Z,1017.17
2023-05-05T06:50:07.326Z,1017.07
2023-05-05T06:51:07.043Z,1017.17
2023-05-05T06:52:06.917Z,1017.13
2023-05-05T06:53:06.934Z,1017.10
2023-05-05T06:54:06.896Z,1017.14
2023-05-05T06:55:06.928Z,1017.13
2023-05-05T06:56:06.906Z,1017.08
2023-05-05T06:57:06.865Z,1017.13
2023-05-05T06:58:06.861Z,1017.11
2023-05-05T06:59:06.838Z,1017.09
2023-05-05T07:00:07.379Z,1017.10
2023-05-05T07:01:06.845Z,1017.14
2023-05-05T07:02:06.832Z,1017.13
2023-05-05T07:03:06.858Z,1017.16
2023-05-05T07:04:07.138Z,1017.17
2023-05-05T07:05:06.776Z,1017.13
2023-05-05T07:06:06.779Z,1017.20
2023-05-05T07:07:06.951Z,1017.14
2023-05-05T07:08:06.750Z,1017.25
2023-05-05T07:09:06.782Z,1017.19
2023-05-05T07:10:06.935Z,1017.18
2023-05-05T07:11:06.735Z,1017.11
2023-05-05T07:12:06.699Z,1017.14
2023-05-05T07:13:06.769Z,1017.15
2023-05-05T07:14:06.685Z,1017.12
2023-05-05T07:15:19.248Z,1017.21
2023-05-05T07:16:06.765Z,1017.18
2023-05-05T07:17:06.659Z,1017.24
2023-05-05T07:18:06.748Z,1017.17
2023-05-05T07:19:06.626Z,1017.14
2023-05-05T07:20:06.845Z,1017.08
2023-05-05T07:21:06.615Z,1017.16
2023-05-05T07:22:06.601Z,1017.15
2023-05-05T07:23:06.831Z,1017.28
2023-05-05T07:24:06.573Z,1017.22
2023-05-05T07:25:06.563Z,1017.29
2023-05-05T07:26:06.572Z,1017.25
2023-05-05T07:27:06.554Z,1017.22
2023-05-05T07:28:06.574Z,1017.26
2023-05-05T07:29:06.526Z,1017.27
2023-05-05T07:30:11.142Z,1017.30
2023-05-05T07:31:07.498Z,1017.23
2023-05-05T07:32:06.537Z,1017.23
2023-05-05T07:33:06.536Z,1017.23
2023-05-05T07:34:06.465Z,1017.24
2023-05-05T07:35:06.475Z,1017.27
2023-05-05T07:36:06.494Z,1017.32
2023-05-05T07:37:06.442Z,1017.19
2023-05-05T07:38:07.636Z,1017.34
2023-05-05T07:39:06.512Z,1017.28
2023-05-05T07:40:06.610Z,1017.37
2023-05-05T07:41:06.414Z,1017.36
2023-05-05T07:42:06.392Z,1017.34
2023-05-05T07:43:06.373Z,1017.37
2023-05-05T07:44:06.351Z,1017.36
2023-05-05T07:45:06.360Z,1017.35
2023-05-05T07:46:06.366Z,1017.36
2023-05-05T07:47:06.313Z,1017.32
2023-05-05T07:48:06.343Z,1017.40
2023-05-05T07:49:06.309Z,1017.29
2023-05-05T07:50:06.727Z,1017.32
2023-05-05T07:51:06.280Z,1017.33
2023-05-05T07:52:06.259Z,1017.38
2023-05-05T07:53:14.648Z,1017.33
2023-05-05T07:54:07.246Z,1017.40
2023-05-05T07:55:06.388Z,1017.38
2023-05-05T07:56:06.249Z,1017.31
2023-05-05T07:57:06.212Z,1017.34
2023-05-05T07:58:06.205Z,1017.38
2023-05-05T07:59:06.225Z,1017.39
2023-05-05T08:00:06.531Z,1017.35
2023-05-05T08:01:06.175Z,1017.36
2023-05-05T08:02:06.210Z,1017.35
2023-05-05T08:03:07.180Z,1017.36
2023-05-05T08:04:06.252Z,1017.36
2023-05-05T08:05:06.595Z,1017.41
2023-05-05T08:06:06.104Z,1017.38
2023-05-05T08:07:06.117Z,1017.37
2023-05-05T08:08:06.099Z,1017.39
2023-05-05T08:09:06.099Z,1017.32
2023-05-05T08:10:06.086Z,1017.41
2023-05-05T08:11:06.174Z,1017.34
2023-05-05T08:12:06.059Z,1017.40
2023-05-05T08:13:06.076Z,1017.35
2023-05-05T08:14:06.028Z,1017.33
2023-05-05T08:15:06.195Z,1017.29
2023-05-05T08:16:06.076Z,1017.29
2023-05-05T08:17:05.997Z,1017.27
2023-05-05T08:18:06.025Z,1017.25
2023-05-05T08:19:14.527Z,1017.20
2023-05-05T08:20:06.967Z,1017.27
2023-05-05T08:21:05.980Z,1017.25
2023-05-05T08:22:05.938Z,1017.21
2023-05-05T08:23:05.937Z,1017.20
2023-05-05T08:24:05.919Z,1017.21
2023-05-05T08:25:06.015Z,1017.17
2023-05-05T08:26:05.929Z,1017.20
2023-05-05T08:27:05.985Z,1017.16
2023-05-05T08:28:05.879Z,1017.10
2023-05-05T08:29:05.866Z,1017.19
2023-05-05T08:30:05.857Z,1017.05
2023-05-05T08:31:05.913Z,1017.08
2023-05-05T08:32:05.837Z,1017.12
2023-05-05T08:33:05.843Z,1017.10
2023-05-05T08:34:05.812Z,1017.07
2023-05-05T08:35:05.948Z,1017.05
2023-05-05T08:36:05.815Z,1017.07
2023-05-05T08:37:05.781Z,1017.05
2023-05-05T08:38:05.783Z,1017.01
2023-05-05T08:39:05.758Z,1017.09
2023-05-05T08:40:05.759Z,1017.10
2023-05-05T08:41:05.761Z,1017.20
2023-05-05T08:42:05.729Z,1017.13
2023-05-05T08:43:05.850Z,1017.13
2023-05-05T08:44:05.706Z,1017.12
2023-05-05T08:45:05.992Z,1017.14
2023-05-05T08:46:05.707Z,1017.19
2023-05-05T08:47:05.838Z,1017.22
2023-05-05T08:48:05.720Z,1017.15
2023-05-05T08:49:05.667Z,1017.16
2023-05-05T08:50:05.658Z,1017.16
2023-05-05T08:51:05.843Z,1017.26
2023-05-05T08:52:05.609Z,1017.16
2023-05-05T08:53:05.660Z,1017.14
2023-05-05T08:54:05.600Z,1017.15
2023-05-05T08:55:05.719Z,1017.11
2023-05-05T08:56:05.598Z,1017.10
2023-05-05T08:57:05.562Z,1017.15
2023-05-05T08:58:05.553Z,1017.17
2023-05-05T08:59:05.689Z,1017.09
2023-05-05T09:00:05.532Z,1017.24
2023-05-05T09:01:05.652Z,1017.12
2023-05-05T09:02:05.523Z,1017.10
2023-05-05T09:03:05.618Z,1017.16
2023-05-05T09:04:05.476Z,1017.18
2023-05-05T09:05:05.548Z,1017.12
2023-05-05T09:06:05.454Z,1017.19
2023-05-05T09:07:05.474Z,1017.12
2023-05-05T09:08:05.441Z,1017.13
2023-05-05T09:09:05.426Z,1017.25
2023-05-05T09:10:05.412Z,1017.13
2023-05-05T09:11:05.411Z,1017.16
2023-05-05T09:12:05.413Z,1017.17
2023-05-05T09:13:05.424Z,1017.09
2023-05-05T09:14:05.378Z,1017.04
2023-05-05T09:15:05.666Z,1017.12
2023-05-05T09:16:05.377Z,1017.15
2023-05-05T09:17:05.394Z,1017.10
2023-05-05T09:18:05.384Z,1017.10
2023-05-05T09:19:05.328Z,1017.18
2023-05-05T09:20:05.334Z,1017.09
2023-05-05T09:21:05.324Z,1017.18
2023-05-05T09:22:05.303Z,1017.14
2023-05-05T09:23:05.283Z,1017.22
2023-05-05T09:24:08.101Z,1017.16
2023-05-05T09:25:05.292Z,1017.18
2023-05-05T09:26:05.284Z,1017.16
2023-05-05T09:27:05.243Z,1017.17
2023-05-05T09:28:05.230Z,1017.15
2023-05-05T09:29:05.223Z,1017.19
2023-05-05T09:30:05.203Z,1017.15
2023-05-05T09:31:05.237Z,1017.12
2023-05-05T09:32:05.198Z,1017.14
2023-05-05T09:33:05.261Z,1017.25
2023-05-05T09:34:05.155Z,1017.21
2023-05-05T09:35:05.173Z,1017.23
2023-05-05T09:36:05.147Z,1017.21
2023-05-05T09:37:05.160Z,1017.13
2023-05-05T09:38:05.117Z,1017.19
2023-05-05T09:39:05.122Z,1017.19
2023-05-05T09:40:05.102Z,1017.15
2023-05-05T09:41:05.087Z,1017.17
2023-05-05T09:42:05.121Z,1017.07
2023-05-05T09:43:05.059Z,1017.11
2023-05-05T09:44:05.088Z,1017.22
2023-05-05T09:45:05.038Z,1017.09
2023-05-05T09:46:05.075Z,1017.04
2023-05-05T09:47:09.307Z,1017.07
2023-05-05T09:48:05.068Z,1017.05
2023-05-05T09:49:05.032Z,1017.03
2023-05-05T09:50:04.998Z,1017.12
2023-05-05T09:51:04.996Z,1017.01
2023-05-05T09:52:04.976Z,1017.12
2023-05-05T09:53:04.975Z,1017.09
2023-05-05T09:54:04.952Z,1017.13
2023-05-05T09:55:04.932Z,1017.05
2023-05-05T09:56:04.944Z,1017.05
2023-05-05T09:57:05.430Z,1017.18
2023-05-05T09:58:04.921Z,1017.17
2023-05-05T09:59:04.890Z,1017.10
2023-05-05T10:00:04.947Z,1017.13
2023-05-05T10:01:05.079Z,1017.17
2023-05-05T10:02:04.863Z,1017.12
2023-05-05T10:03:04.899Z,1017.25
2023-05-05T10:04:04.850Z,1017.15
2023-05-05T10:05:04.917Z,1017.21
2023-05-05T10:06:04.819Z,1017.22
2023-05-05T10:07:04.824Z,1017.21
2023-05-05T10:08:04.793Z,1017.16
2023-05-05T10:09:04.774Z,1017.04
2023-05-05T10:10:04.860Z,1017.20
2023-05-05T10:11:04.766Z,1017.17
2023-05-05T10:12:04.749Z,1017.23
2023-05-05T10:13:04.819Z,1017.06
2023-05-05T10:14:04.723Z,1017.09
2023-05-05T10:15:04.734Z,1017.09
2023-05-05T10:16:04.765Z,1017.05
2023-05-05T10:17:04.688Z,1017.08
2023-05-05T10:18:08.130Z,1017.09
2023-05-05T10:19:04.695Z,1017.05
2023-05-05T10:20:04.686Z,1016.99
2023-05-05T10:21:04.648Z,1017.05
2023-05-05T10:22:04.636Z,1016.87
2023-05-05T10:23:04.643Z,1016.92
2023-05-05T10:24:04.639Z,1016.96
2023-05-05T10:25:04.634Z,1016.99
2023-05-05T10:26:04.613Z,1016.94
2023-05-05T10:27:04.592Z,1016.97
2023-05-05T10:28:04.582Z,1016.93
2023-05-05T10:29:04.566Z,1016.97
2023-05-05T10:30:04.587Z,1016.97
2023-05-05T10:31:16.222Z,1016.94
2023-05-05T10:32:21.367Z,1016.94
2023-05-05T10:33:29.594Z,1016.93
2023-05-05T10:34:05.599Z,1016.93
2023-05-05T10:35:04.639Z,1016.95
2023-05-05T10:36:04.537Z,1016.97
2023-05-05T10:37:04.481Z,1017.06
2023-05-05T10:38:04.477Z,1016.95
2023-05-05T10:39:04.462Z,1016.88
2023-05-05T10:40:04.455Z,1016.98
2023-05-05T10:41:04.483Z,1016.97
2023-05-05T10:42:04.466Z,1016.89
2023-05-05T10:43:04.416Z,1016.93
2023-05-05T10:44:04.735Z,1016.83
2023-05-05T10:45:04.444Z,1016.93
2023-05-05T10:46:04.470Z,1016.90
2023-05-05T10:47:04.382Z,1016.88
2023-05-05T10:48:04.444Z,1016.94
2023-05-05T10:49:04.355Z,1016.98
2023-05-05T10:50:04.353Z,1016.98
2023-05-05T10:51:04.464Z,1016.93
2023-05-05T10:52:04.333Z,1016.96
2023-05-05T10:53:04.315Z,1016.90
2023-05-05T10:54:04.326Z,1016.84
2023-05-05T10:55:04.295Z,1016.91
2023-05-05T10:56:04.295Z,1016.85
2023-05-05T10:57:04.303Z,1016.89
2023-05-05T10:58:04.308Z,1016.88
2023-05-05T10:59:04.250Z,1016.91
2023-05-05T11:00:04.327Z,1016.88
2023-05-05T11:01:04.329Z,1016.76
2023-05-05T11:02:04.228Z,1016.80
2023-05-05T11:03:04.345Z,1016.73
2023-05-05T11:04:04.203Z,1016.71
2023-05-05T11:05:04.225Z,1016.82
2023-05-05T11:06:04.247Z,1016.89
2023-05-05T11:07:04.262Z,1016.74
2023-05-05T11:08:04.214Z,1016.62
2023-05-05T11:09:04.182Z,1016.75
2023-05-05T11:10:04.173Z,1016.74
2023-05-05T11:11:04.128Z,1016.68
2023-05-05T11:12:04.117Z,1016.66
2023-05-05T11:13:04.153Z,1016.74
2023-05-05T11:14:04.095Z,1016.71
2023-05-05T11:15:04.099Z,1016.75
2023-05-05T11:16:04.131Z,1016.68
2023-05-05T11:17:04.063Z,1016.64
2023-05-05T11:18:06.689Z,1016.63
2023-05-05T11:19:04.036Z,1016.62
2023-05-05T11:20:04.033Z,1016.61
2023-05-05T11:21:04.042Z,1016.55
2023-05-05T11:22:04.005Z,1016.56
2023-05-05T11:23:04.603Z,1016.60
2023-05-05T11:24:03.985Z,1016.58
2023-05-05T11:25:03.975Z,1016.54
2023-05-05T11:26:03.986Z,1016.59
2023-05-05T11:27:03.954Z,1016.58
2023-05-05T11:28:03.964Z,1016.62
2023-05-05T11:29:03.945Z,1016.69
2023-05-05T11:30:03.929Z,1016.60
2023-05-05T11:31:03.936Z,1016.60
2023-05-05T11:32:03.904Z,1016.52
2023-05-05T11:33:03.928Z,1016.48
2023-05-05T11:34:03.877Z,1016.48
2023-05-05T11:35:03.892Z,1016.42
2023-05-05T11:36:06.416Z,1016.51
2023-05-05T11:37:03.842Z,1016.49
2023-05-05T11:38:03.860Z,1016.41
2023-05-05T11:39:03.934Z,1016.40
2023-05-05T11:40:03.817Z,1016.46
2023-05-05T11:41:03.802Z,1016.41
2023-05-05T11:42:09.352Z,1016.37
2023-05-05T11:43:04.797Z,1016.30
2023-05-05T11:44:03.768Z,1016.40
2023-05-05T11:45:03.759Z,1016.35
2023-05-05T11:46:03.772Z,1016.34
2023-05-05T11:47:03.735Z,1016.27
2023-05-05T11:48:03.772Z,1016.35
2023-05-05T11:49:03.722Z,1016.29
2023-05-05T11:50:03.706Z,1016.21
2023-05-05T11:51:03.683Z,1016.32
2023-05-05T11:52:03.689Z,1016.24
2023-05-05T11:53:03.688Z,1016.27
2023-05-05T11:54:03.667Z,1016.31
2023-05-05T11:55:03.851Z,1016.30
2023-05-05T11:56:03.646Z,1016.37
2023-05-05T11:57:03.641Z,1016.33
2023-05-05T11:58:03.643Z,1016.35
2023-05-05T11:59:03.608Z,1016.31
2023-05-05T12:00:03.610Z,1016.31
2023-05-05T12:01:03.601Z,1016.37
2023-05-05T12:02:03.643Z,1016.35
2023-05-05T12:03:03.656Z,1016.25
2023-05-05T12:04:03.743Z,1016.30
2023-05-05T12:05:03.595Z,1016.37